sensor_id;sensor_type;location;lat;lon;timestamp;P1;P2;P0
45112;PMS5003;30873;53.908;27.576;2023-12-04T00:01:16;27.5;22;12.9
45112;PMS5003;30873;53.908;27.576;2023-12-04T00:06:40;28.7;22.8;13.6
45112;PMS5003;30873;53.908;27.576;2023-12-04T00:11:46;26;19.5;12
45112;PMS5003;30873;53.908;27.576;2023-12-04T00:16:58;33.8;28.6;18.8
45112;PMS5003;30873;53.908;27.576;2023-12-04T00:21:36;28.8;24;13.5
45112;PMS5003;30873;53.908;27.576;2023-12-04T00:26:18;27.2;21.1;12.6
45112;PMS5003;30873;53.908;27.576;2023-12-04T00:31:58;31;24;16.3
45112;PMS5003;30873;53.908;27.576;2023-12-04T00:36:42;29.8;23.8;15
45112;PMS5003;30873;53.908;27.576;2023-12-04T00:41:54;26;20.5;12.2
45112;PMS5003;30873;53.908;27.576;2023-12-04T00:46:40;25.7;21.6;12.7
45112;PMS5003;30873;53.908;27.576;2023-12-04T00:52:00;25.2;20.8;11.8
45112;PMS5003;30873;53.908;27.576;2023-12-04T00:56:16;25.7;20.4;10.9
45112;PMS5003;30873;53.908;27.576;2023-12-04T01:01:50;25.8;21;12.4
45112;PMS5003;30873;53.908;27.576;2023-12-04T01:06:58;26.3;21.7;12.5
45112;PMS5003;30873;53.908;27.576;2023-12-04T01:11:24;29.2;22.4;13
45112;PMS5003;30873;53.908;27.576;2023-12-04T01:16:26;23.7;20.8;12.8
45112;PMS5003;30873;53.908;27.576;2023-12-04T01:21:24;26;21;12
45112;PMS5003;30873;53.908;27.576;2023-12-04T01:26:40;23.1;18.2;10.9
45112;PMS5003;30873;53.908;27.576;2023-12-04T01:32:00;22.2;18.2;10.7
45112;PMS5003;30873;53.908;27.576;2023-12-04T01:36:39;22.9;17.8;11
45112;PMS5003;30873;53.908;27.576;2023-12-04T01:41:24;22.7;17.9;10.5
45112;PMS5003;30873;53.908;27.576;2023-12-04T01:46:40;21.4;16.6;9.5
45112;PMS5003;30873;53.908;27.576;2023-12-04T01:51:54;21.7;17;9.8
45112;PMS5003;30873;53.908;27.576;2023-12-04T01:56:50;21.7;17.8;10.5
45112;PMS5003;30873;53.908;27.576;2023-12-04T02:01:28;21.6;17.5;9.9
45112;PMS5003;30873;53.908;27.576;2023-12-04T02:06:40;21.7;17.7;10.1
45112;PMS5003;30873;53.908;27.576;2023-12-04T02:12:02;19.8;17.4;10.1
45112;PMS5003;30873;53.908;27.576;2023-12-04T02:16:44;21.6;18.1;10.3
45112;PMS5003;30873;53.908;27.576;2023-12-04T02:21:54;22.3;16.4;9
45112;PMS5003;30873;53.908;27.576;2023-12-04T02:26:47;22.4;18.3;10.7
45112;PMS5003;30873;53.908;27.576;2023-12-04T02:31:58;22.6;17.7;9.9
45112;PMS5003;30873;53.908;27.576;2023-12-04T02:36:26;22.6;17.7;9.7
45112;PMS5003;30873;53.908;27.576;2023-12-04T02:41:58;22.4;19.3;11.4
45112;PMS5003;30873;53.908;27.576;2023-12-04T02:46:58;22.9;18.5;10.1
45112;PMS5003;30873;53.908;27.576;2023-12-04T02:51:16;25;21.8;11.8
45112;PMS5003;30873;53.908;27.576;2023-12-04T02:56:58;26.1;19.4;11.8
45112;PMS5003;30873;53.908;27.576;2023-12-04T03:01:42;28.5;22;13.2
45112;PMS5003;30873;53.908;27.576;2023-12-04T03:06:24;31.4;25.9;14
45112;PMS5003;30873;53.908;27.576;2023-12-04T03:11:58;36.7;28.4;15.5
45112;PMS5003;30873;53.908;27.576;2023-12-04T03:16:16;38.7;32.2;17.2
45112;PMS5003;30873;53.908;27.576;2023-12-04T03:21:40;35.8;27.8;17.1
45112;PMS5003;30873;53.908;27.576;2023-12-04T03:26:24;30.3;25.4;14.6
45112;PMS5003;30873;53.908;27.576;2023-12-04T03:32:00;28.8;23.6;14
45112;PMS5003;30873;53.908;27.576;2023-12-04T03:36:30;29.2;23.1;13.2
45112;PMS5003;30873;53.908;27.576;2023-12-04T03:41:36;27.3;20.2;12.4
45112;PMS5003;30873;53.908;27.576;2023-12-04T03:47:00;28.5;23.6;13.4
45112;PMS5003;30873;53.908;27.576;2023-12-04T03:52:00;30.8;23.6;13.5
45112;PMS5003;30873;53.908;27.576;2023-12-04T03:56:56;28.4;22.4;13.5
45112;PMS5003;30873;53.908;27.576;2023-12-04T04:02:00;34;26.3;15.5
45112;PMS5003;30873;53.908;27.576;2023-12-04T04:06:24;30.3;24.7;13.3
45112;PMS5003;30873;53.908;27.576;2023-12-04T04:11:46;30.7;24.4;14
45112;PMS5003;30873;53.908;27.576;2023-12-04T04:16:36;29.3;24.2;14.4
45112;PMS5003;30873;53.908;27.576;2023-12-04T04:21:46;28.6;23.7;14.1
45112;PMS5003;30873;53.908;27.576;2023-12-04T04:26:38;33.4;26.3;16.1
45112;PMS5003;30873;53.908;27.576;2023-12-04T04:31:24;31;24.1;14.2
45112;PMS5003;30873;53.908;27.576;2023-12-04T04:37:00;37.1;30.9;18.1
45112;PMS5003;30873;53.908;27.576;2023-12-04T04:41:44;35.6;29.4;19.4
45112;PMS5003;30873;53.908;27.576;2023-12-04T04:46:24;38.6;30.1;18.8
45112;PMS5003;30873;53.908;27.576;2023-12-04T04:51:58;36.1;29.6;16.8
45112;PMS5003;30873;53.908;27.576;2023-12-04T04:56:18;36.9;29.2;17.6
45112;PMS5003;30873;53.908;27.576;2023-12-04T05:01:22;39.4;32.8;17.5
45112;PMS5003;30873;53.908;27.576;2023-12-04T05:06:56;36.9;29;16.7
45112;PMS5003;30873;53.908;27.576;2023-12-04T05:11:58;35;28.7;15.9
45112;PMS5003;30873;53.908;27.576;2023-12-04T05:16:22;36.9;28.1;15.8
45112;PMS5003;30873;53.908;27.576;2023-12-04T05:21:34;37.1;28.1;16.8
45112;PMS5003;30873;53.908;27.576;2023-12-04T05:27:00;36.6;30.7;17.6
45112;PMS5003;30873;53.908;27.576;2023-12-04T05:31:58;39;32.9;18.6
45112;PMS5003;30873;53.908;27.576;2023-12-04T05:36:46;37;30.9;18.5
45112;PMS5003;30873;53.908;27.576;2023-12-04T05:42:00;46.2;35.5;21.2
45112;PMS5003;30873;53.908;27.576;2023-12-04T05:46:22;43.2;35.7;20.2
45112;PMS5003;30873;53.908;27.576;2023-12-04T05:51:44;39.3;31.5;18.1
45112;PMS5003;30873;53.908;27.576;2023-12-04T05:56:54;36.7;29.9;17.4
45112;PMS5003;30873;53.908;27.576;2023-12-04T06:01:26;33.1;28.9;17.3
45112;PMS5003;30873;53.908;27.576;2023-12-04T06:06:26;41.5;35.2;23
45112;PMS5003;30873;53.908;27.576;2023-12-04T06:11:36;43.3;34.8;22.3
45112;PMS5003;30873;53.908;27.576;2023-12-04T06:17:00;50.1;40.7;27.6
45112;PMS5003;30873;53.908;27.576;2023-12-04T06:21:28;44.5;37.6;25.3
45112;PMS5003;30873;53.908;27.576;2023-12-04T06:26:34;35.4;29.4;18.6
45112;PMS5003;30873;53.908;27.576;2023-12-04T06:31:16;34.2;29.4;19.3
45112;PMS5003;30873;53.908;27.576;2023-12-04T06:36:44;36;29.8;17.6
45112;PMS5003;30873;53.908;27.576;2023-12-04T06:41:38;37;30.8;20.8
45112;PMS5003;30873;53.908;27.576;2023-12-04T06:46:20;31.2;26.3;16.9
45112;PMS5003;30873;53.908;27.576;2023-12-04T06:51:58;34.7;27.7;18.1
45112;PMS5003;30873;53.908;27.576;2023-12-04T06:56:38;33.9;27.2;15.3
45112;PMS5003;30873;53.908;27.576;2023-12-04T07:01:58;31.9;25.1;15.2
45112;PMS5003;30873;53.908;27.576;2023-12-04T07:07:00;34.7;28.3;16
45112;PMS5003;30873;53.908;27.576;2023-12-04T07:12:00;27.8;24.7;13.7
45112;PMS5003;30873;53.908;27.576;2023-12-04T07:16:56;27.6;23;14.1
45112;PMS5003;30873;53.908;27.576;2023-12-04T07:21:24;32.9;25.5;14.3
45112;PMS5003;30873;53.908;27.576;2023-12-04T07:26:16;33.6;26.9;14.9
45112;PMS5003;30873;53.908;27.576;2023-12-04T07:31:46;31.2;27.5;15.9
45112;PMS5003;30873;53.908;27.576;2023-12-04T07:37:00;31.7;27;13.4
45112;PMS5003;30873;53.908;27.576;2023-12-04T07:41:17;30.7;24.3;13.2
45112;PMS5003;30873;53.908;27.576;2023-12-04T07:46:38;29.3;24.4;13.9
45112;PMS5003;30873;53.908;27.576;2023-12-04T07:51:16;24.9;20.9;12.5
45112;PMS5003;30873;53.908;27.576;2023-12-04T07:56:58;29.8;23.7;13.7
45112;PMS5003;30873;53.908;27.576;2023-12-04T08:01:58;23.6;18.9;11.6
45112;PMS5003;30873;53.908;27.576;2023-12-04T08:06:38;26.6;21.4;12
45112;PMS5003;30873;53.908;27.576;2023-12-04T08:12:00;25.9;21.6;12.5
45112;PMS5003;30873;53.908;27.576;2023-12-04T08:16:18;23.7;19.5;11.3
45112;PMS5003;30873;53.908;27.576;2023-12-04T08:21:16;27.6;20.9;11.9
45112;PMS5003;30873;53.908;27.576;2023-12-04T08:26:21;25.2;21.5;11.7
45112;PMS5003;30873;53.908;27.576;2023-12-04T08:31:36;24.8;20.6;11.9
45112;PMS5003;30873;53.908;27.576;2023-12-04T08:36:30;26;20;11.8
45112;PMS5003;30873;53.908;27.576;2023-12-04T08:41:40;26.3;21.8;12.3
45112;PMS5003;30873;53.908;27.576;2023-12-04T08:46:58;25.7;21.7;12.1
45112;PMS5003;30873;53.908;27.576;2023-12-04T08:51:58;23.7;18.6;11.1
45112;PMS5003;30873;53.908;27.576;2023-12-04T08:56:40;26.4;21.5;12.6
45112;PMS5003;30873;53.908;27.576;2023-12-04T09:01:56;23.9;19.7;11.2
45112;PMS5003;30873;53.908;27.576;2023-12-04T09:06:16;25.9;18.6;11.4
45112;PMS5003;30873;53.908;27.576;2023-12-04T09:11:42;25.7;20.8;12.3
45112;PMS5003;30873;53.908;27.576;2023-12-04T09:16:56;26.7;22.3;11.7
45112;PMS5003;30873;53.908;27.576;2023-12-04T09:21:40;23.5;19.5;11
45112;PMS5003;30873;53.908;27.576;2023-12-04T09:26:40;26.7;22.8;12.7
45112;PMS5003;30873;53.908;27.576;2023-12-04T09:31:34;30.7;23.3;12.6
45112;PMS5003;30873;53.908;27.576;2023-12-04T09:36:44;25.5;19.2;10.9
45112;PMS5003;30873;53.908;27.576;2023-12-04T09:41:58;25.6;20.3;12
45112;PMS5003;30873;53.908;27.576;2023-12-04T09:46:46;23.8;18.3;10.5
45112;PMS5003;30873;53.908;27.576;2023-12-04T09:51:30;22.8;19.5;11.4
45112;PMS5003;30873;53.908;27.576;2023-12-04T09:56:36;28.6;23.4;14.1
45112;PMS5003;30873;53.908;27.576;2023-12-04T10:01:40;26;20.2;11.4
45112;PMS5003;30873;53.908;27.576;2023-12-04T10:06:22;26.1;21.7;11.3
45112;PMS5003;30873;53.908;27.576;2023-12-04T10:11:38;23.9;19.4;11.2
45112;PMS5003;30873;53.908;27.576;2023-12-04T10:16:38;25.8;18.7;10.5
45112;PMS5003;30873;53.908;27.576;2023-12-04T10:21:44;22.6;19.6;11.2
45112;PMS5003;30873;53.908;27.576;2023-12-04T10:27:04;27.8;22.3;12.8
45112;PMS5003;30873;53.908;27.576;2023-12-04T10:32:04;27.9;22;12.1
45112;PMS5003;30873;53.908;27.576;2023-12-04T10:36:16;24.1;18.5;11.7
45112;PMS5003;30873;53.908;27.576;2023-12-04T10:41:42;24.6;19.7;11.4
45112;PMS5003;30873;53.908;27.576;2023-12-04T10:46:14;24.4;20;10.6
45112;PMS5003;30873;53.908;27.576;2023-12-04T10:51:34;24.8;19.9;10.5
45112;PMS5003;30873;53.908;27.576;2023-12-04T10:56:42;19.2;16.3;9.4
45112;PMS5003;30873;53.908;27.576;2023-12-04T11:01:34;28.4;24.1;14.8
45112;PMS5003;30873;53.908;27.576;2023-12-04T11:06:18;26.4;22.6;13.7
45112;PMS5003;30873;53.908;27.576;2023-12-04T11:11:19;26;20.5;12.1
45112;PMS5003;30873;53.908;27.576;2023-12-04T11:17:01;25.7;21;12.1
45112;PMS5003;30873;53.908;27.576;2023-12-04T11:22:02;27.8;22.4;13.2
45112;PMS5003;30873;53.908;27.576;2023-12-04T11:26:38;30.9;23.4;13.5
45112;PMS5003;30873;53.908;27.576;2023-12-04T11:31:56;22.9;19.9;9.9
45112;PMS5003;30873;53.908;27.576;2023-12-04T11:36:16;20.3;16.3;8.8
45112;PMS5003;30873;53.908;27.576;2023-12-04T11:41:17;25.1;20;12.1
45112;PMS5003;30873;53.908;27.576;2023-12-04T11:47:02;26;19.6;11.9
45112;PMS5003;30873;53.908;27.576;2023-12-04T11:51:54;22.3;19;11.1
45112;PMS5003;30873;53.908;27.576;2023-12-04T11:56:32;26.9;21.9;14.9
45112;PMS5003;30873;53.908;27.576;2023-12-04T12:01:40;23.8;20.6;13.6
45112;PMS5003;30873;53.908;27.576;2023-12-04T12:06:52;24.4;20.8;13.1
45112;PMS5003;30873;53.908;27.576;2023-12-04T12:12:02;23.4;19.1;11.3
45112;PMS5003;30873;53.908;27.576;2023-12-04T12:16:24;22.2;17.5;10.2
45112;PMS5003;30873;53.908;27.576;2023-12-04T12:21:42;21.3;17.9;11
45112;PMS5003;30873;53.908;27.576;2023-12-04T12:27:02;17.5;15;8.7
45112;PMS5003;30873;53.908;27.576;2023-12-04T12:31:44;18.4;15.3;9
45112;PMS5003;30873;53.908;27.576;2023-12-04T12:36:58;21.9;17.3;9.4
45112;PMS5003;30873;53.908;27.576;2023-12-04T12:41:32;17.3;15;8.2
45112;PMS5003;30873;53.908;27.576;2023-12-04T12:47:04;17.5;14.8;8.4
45112;PMS5003;30873;53.908;27.576;2023-12-04T12:51:26;16.7;14.4;8.6
45112;PMS5003;30873;53.908;27.576;2023-12-04T12:57:02;21.5;18;10.1
45112;PMS5003;30873;53.908;27.576;2023-12-04T13:02:00;15.1;12.7;8.3
45112;PMS5003;30873;53.908;27.576;2023-12-04T13:06:22;14.1;11.5;7.1
45112;PMS5003;30873;53.908;27.576;2023-12-04T13:11:40;14.8;11.8;7.4
45112;PMS5003;30873;53.908;27.576;2023-12-04T13:16:14;17.4;13.7;8.4
45112;PMS5003;30873;53.908;27.576;2023-12-04T13:21:22;15.1;12.6;8
45112;PMS5003;30873;53.908;27.576;2023-12-04T13:26:14;16.2;13.2;7.6
45112;PMS5003;30873;53.908;27.576;2023-12-04T13:31:14;15.5;13.5;8.4
45112;PMS5003;30873;53.908;27.576;2023-12-04T13:36:22;17.4;14;9
45112;PMS5003;30873;53.908;27.576;2023-12-04T13:41:18;16.7;13.8;8.4
45112;PMS5003;30873;53.908;27.576;2023-12-04T13:46:58;15.2;12.7;8.1
45112;PMS5003;30873;53.908;27.576;2023-12-04T13:52:02;13.8;11.5;7.3
45112;PMS5003;30873;53.908;27.576;2023-12-04T13:56:14;15.1;12.5;7.1
45112;PMS5003;30873;53.908;27.576;2023-12-04T14:01:42;12.7;9.8;6.5
45112;PMS5003;30873;53.908;27.576;2023-12-04T14:07:02;14.6;12.7;7.3
45112;PMS5003;30873;53.908;27.576;2023-12-04T14:11:44;17.6;14.5;8.5
45112;PMS5003;30873;53.908;27.576;2023-12-04T14:16:40;18;15.3;9.7
45112;PMS5003;30873;53.908;27.576;2023-12-04T14:22:00;15;13.2;8
45112;PMS5003;30873;53.908;27.576;2023-12-04T14:27:02;17.9;14.4;9.2
45112;PMS5003;30873;53.908;27.576;2023-12-04T14:31:40;19.8;16.3;8.9
45112;PMS5003;30873;53.908;27.576;2023-12-04T14:36:42;13.9;11.6;7.3
45112;PMS5003;30873;53.908;27.576;2023-12-04T14:42:00;16;13.1;8.5
45112;PMS5003;30873;53.908;27.576;2023-12-04T14:46:34;18.7;15.8;9.7
45112;PMS5003;30873;53.908;27.576;2023-12-04T14:51:34;16.9;13.2;8.1
45112;PMS5003;30873;53.908;27.576;2023-12-04T14:56:26;16.1;13.5;8.1
45112;PMS5003;30873;53.908;27.576;2023-12-04T15:01:24;12.3;10.4;6.6
45112;PMS5003;30873;53.908;27.576;2023-12-04T15:06:38;18.3;13.9;8.7
45112;PMS5003;30873;53.908;27.576;2023-12-04T15:11:16;16.8;12.9;8.1
45112;PMS5003;30873;53.908;27.576;2023-12-04T15:16:46;14;10.4;7.1
45112;PMS5003;30873;53.908;27.576;2023-12-04T15:21:42;15.7;12.2;8.1
45112;PMS5003;30873;53.908;27.576;2023-12-04T15:26:44;16.4;13.6;8.1
45112;PMS5003;30873;53.908;27.576;2023-12-04T15:32:02;19.6;17.3;10.9
45112;PMS5003;30873;53.908;27.576;2023-12-04T15:36:24;17.3;14.1;8.8
45112;PMS5003;30873;53.908;27.576;2023-12-04T15:41:42;18.6;16.4;10.7
45112;PMS5003;30873;53.908;27.576;2023-12-04T15:47:02;20.7;16.9;11.4
45112;PMS5003;30873;53.908;27.576;2023-12-04T15:51:18;18.5;16;10
45112;PMS5003;30873;53.908;27.576;2023-12-04T15:56:36;19.9;17.1;10.5
45112;PMS5003;30873;53.908;27.576;2023-12-04T16:01:34;17.8;15.5;9.7
45112;PMS5003;30873;53.908;27.576;2023-12-04T16:07:02;22.2;17.3;10.6
45112;PMS5003;30873;53.908;27.576;2023-12-04T16:11:26;16.5;14.2;9.7
45112;PMS5003;30873;53.908;27.576;2023-12-04T16:17:00;21.1;16.8;11.4
45112;PMS5003;30873;53.908;27.576;2023-12-04T16:21:16;23.8;19.3;12.4
45112;PMS5003;30873;53.908;27.576;2023-12-04T16:26:16;22.2;20.1;13.2
45112;PMS5003;30873;53.908;27.576;2023-12-04T16:32:02;25.1;20.6;13.2
45112;PMS5003;30873;53.908;27.576;2023-12-04T16:36:46;22.2;19.2;12.5
45112;PMS5003;30873;53.908;27.576;2023-12-04T16:41:43;18.9;15.9;9.8
45112;PMS5003;30873;53.908;27.576;2023-12-04T16:46:24;21.8;18.6;12
45112;PMS5003;30873;53.908;27.576;2023-12-04T16:51:24;22.1;18.3;11.7
45112;PMS5003;30873;53.908;27.576;2023-12-04T16:56:14;21.4;17.5;11.1
45112;PMS5003;30873;53.908;27.576;2023-12-04T17:01:14;19.8;18;10.4
45112;PMS5003;30873;53.908;27.576;2023-12-04T17:06:16;23.7;20.7;13.3
45112;PMS5003;30873;53.908;27.576;2023-12-04T17:11:38;21.5;18.9;12.9
45112;PMS5003;30873;53.908;27.576;2023-12-04T17:16:28;22.4;19.5;12.3
45112;PMS5003;30873;53.908;27.576;2023-12-04T17:22:03;20.5;17.8;11.1
45112;PMS5003;30873;53.908;27.576;2023-12-04T17:27:02;26.1;23.4;16.1
45112;PMS5003;30873;53.908;27.576;2023-12-04T17:31:32;19.3;16.5;10.8
45112;PMS5003;30873;53.908;27.576;2023-12-04T17:37:00;24.9;20.4;13.4
45112;PMS5003;30873;53.908;27.576;2023-12-04T17:41:20;22.1;18;11.6
45112;PMS5003;30873;53.908;27.576;2023-12-04T17:46:34;20.6;16.6;10.3
45112;PMS5003;30873;53.908;27.576;2023-12-04T17:51:54;19.7;15.6;9.3
45112;PMS5003;30873;53.908;27.576;2023-12-04T17:56:58;22.3;19.8;12.7
45112;PMS5003;30873;53.908;27.576;2023-12-04T18:01:40;23.4;19.3;12.8
45112;PMS5003;30873;53.908;27.576;2023-12-04T18:06:14;18.4;14.2;8.3
45112;PMS5003;30873;53.908;27.576;2023-12-04T18:12:02;25.8;21.3;14.4
45112;PMS5003;30873;53.908;27.576;2023-12-04T18:16:36;18.3;14.7;9.6
45112;PMS5003;30873;53.908;27.576;2023-12-04T18:21:32;16.5;13.6;8.9
45112;PMS5003;30873;53.908;27.576;2023-12-04T18:26:30;18.8;13.6;8
45112;PMS5003;30873;53.908;27.576;2023-12-04T18:31:16;17.4;15;9.4
45112;PMS5003;30873;53.908;27.576;2023-12-04T18:36:14;21.6;14.2;7.7
45112;PMS5003;30873;53.908;27.576;2023-12-04T18:41:16;18.1;15.2;9.3
45112;PMS5003;30873;53.908;27.576;2023-12-04T18:47:02;14.8;13.1;8.1
45112;PMS5003;30873;53.908;27.576;2023-12-04T18:51:38;16.4;13.3;8.4
45112;PMS5003;30873;53.908;27.576;2023-12-04T18:56:34;17.9;14.7;8.3
45112;PMS5003;30873;53.908;27.576;2023-12-04T19:02:00;19;15.6;9.6
45112;PMS5003;30873;53.908;27.576;2023-12-04T19:07:02;17;14.6;7.8
45112;PMS5003;30873;53.908;27.576;2023-12-04T19:11:40;18.2;14.5;8.7
45112;PMS5003;30873;53.908;27.576;2023-12-04T19:17:00;16.3;14.4;8.2
